sensor_id;sensor_type;location;lat;lon;timestamp;P1;durP1;ratioP1;P2;durP2;ratioP2
44110;SDS011;29774;52.664;5.074;2022-08-03T00:01:36;12.30;;;1.70;;
44110;SDS011;29774;52.664;5.074;2022-08-03T00:04:02;4.47;;;1.15;;
44110;SDS011;29774;52.664;5.074;2022-08-03T00:06:31;4.03;;;1.35;;
44110;SDS011;29774;52.664;5.074;2022-08-03T00:08:57;3.13;;;0.90;;
44110;SDS011;29774;52.664;5.074;2022-08-03T00:11:23;3.92;;;1.55;;
44110;SDS011;29774;52.664;5.074;2022-08-03T00:13:49;1.95;;;1.20;;
44110;SDS011;29774;52.664;5.074;2022-08-03T00:16:16;1.58;;;0.90;;
44110;SDS011;29774;52.664;5.074;2022-08-03T00:18:41;8.65;;;1.25;;
44110;SDS011;29774;52.664;5.074;2022-08-03T00:21:07;2.95;;;1.05;;
44110;SDS011;29774;52.664;5.074;2022-08-03T00:23:33;4.40;;;1.60;;
44110;SDS011;29774;52.664;5.074;2022-08-03T00:25:59;3.53;;;1.25;;
44110;SDS011;29774;52.664;5.074;2022-08-03T00:28:25;3.15;;;1.05;;
44110;SDS011;29774;52.664;5.074;2022-08-03T00:30:50;5.63;;;1.27;;
44110;SDS011;29774;52.664;5.074;2022-08-03T00:33:16;2.53;;;1.30;;
44110;SDS011;29774;52.664;5.074;2022-08-03T00:35:42;3.60;;;1.25;;
44110;SDS011;29774;52.664;5.074;2022-08-03T00:38:08;3.05;;;1.08;;
44110;SDS011;29774;52.664;5.074;2022-08-03T00:40:33;2.35;;;1.10;;
44110;SDS011;29774;52.664;5.074;2022-08-03T00:43:00;2.47;;;1.08;;
44110;SDS011;29774;52.664;5.074;2022-08-03T00:45:36;2.72;;;1.17;;
44110;SDS011;29774;52.664;5.074;2022-08-03T00:48:06;1.83;;;1.00;;
44110;SDS011;29774;52.664;5.074;2022-08-03T00:50:35;6.65;;;1.48;;
44110;SDS011;29774;52.664;5.074;2022-08-03T00:53:04;5.90;;;1.80;;
44110;SDS011;29774;52.664;5.074;2022-08-03T00:55:31;3.42;;;0.90;;
44110;SDS011;29774;52.664;5.074;2022-08-03T00:57:57;5.70;;;1.40;;
44110;SDS011;29774;52.664;5.074;2022-08-03T01:00:24;7.15;;;1.58;;
44110;SDS011;29774;52.664;5.074;2022-08-03T01:02:51;5.43;;;1.40;;
44110;SDS011;29774;52.664;5.074;2022-08-03T01:05:18;4.78;;;1.40;;
44110;SDS011;29774;52.664;5.074;2022-08-03T01:07:55;2.10;;;1.17;;
44110;SDS011;29774;52.664;5.074;2022-08-03T01:18:35;4.38;;;1.05;;
44110;SDS011;29774;52.664;5.074;2022-08-03T01:21:09;2.83;;;1.20;;
44110;SDS011;29774;52.664;5.074;2022-08-03T01:24:00;8.52;;;2.28;;
44110;SDS011;29774;52.664;5.074;2022-08-03T01:32:34;3.90;;;1.27;;
44110;SDS011;29774;52.664;5.074;2022-08-03T01:35:25;5.30;;;1.45;;
44110;SDS011;29774;52.664;5.074;2022-08-03T01:38:00;4.57;;;1.42;;
44110;SDS011;29774;52.664;5.074;2022-08-03T01:40:28;7.97;;;1.80;;
44110;SDS011;29774;52.664;5.074;2022-08-03T01:42:58;6.32;;;1.40;;
44110;SDS011;29774;52.664;5.074;2022-08-03T01:45:26;3.72;;;1.13;;
44110;SDS011;29774;52.664;5.074;2022-08-03T01:47:53;2.50;;;1.08;;
44110;SDS011;29774;52.664;5.074;2022-08-03T01:50:21;3.28;;;1.52;;
44110;SDS011;29774;52.664;5.074;2022-08-03T01:52:51;2.80;;;1.25;;
44110;SDS011;29774;52.664;5.074;2022-08-03T01:55:18;5.63;;;1.85;;
44110;SDS011;29774;52.664;5.074;2022-08-03T01:57:47;4.88;;;1.10;;
44110;SDS011;29774;52.664;5.074;2022-08-03T02:00:14;4.05;;;1.33;;
44110;SDS011;29774;52.664;5.074;2022-08-03T02:02:41;4.18;;;1.33;;
44110;SDS011;29774;52.664;5.074;2022-08-03T02:05:09;2.72;;;0.90;;
44110;SDS011;29774;52.664;5.074;2022-08-03T02:07:35;4.38;;;1.27;;
44110;SDS011;29774;52.664;5.074;2022-08-03T02:10:04;3.22;;;1.23;;
44110;SDS011;29774;52.664;5.074;2022-08-03T02:12:31;3.90;;;1.65;;
44110;SDS011;29774;52.664;5.074;2022-08-03T02:14:59;5.28;;;1.38;;
44110;SDS011;29774;52.664;5.074;2022-08-03T02:17:26;4.63;;;1.10;;
44110;SDS011;29774;52.664;5.074;2022-08-03T02:19:52;4.68;;;1.30;;
44110;SDS011;29774;52.664;5.074;2022-08-03T02:22:20;4.57;;;1.48;;
44110;SDS011;29774;52.664;5.074;2022-08-03T02:24:48;3.92;;;1.30;;
44110;SDS011;29774;52.664;5.074;2022-08-03T02:27:16;4.45;;;1.10;;
44110;SDS011;29774;52.664;5.074;2022-08-03T02:29:48;3.33;;;1.00;;
44110;SDS011;29774;52.664;5.074;2022-08-03T02:32:20;2.38;;;1.05;;
44110;SDS011;29774;52.664;5.074;2022-08-03T02:34:52;3.75;;;1.23;;
44110;SDS011;29774;52.664;5.074;2022-08-03T02:37:22;5.38;;;1.30;;
44110;SDS011;29774;52.664;5.074;2022-08-03T02:39:53;2.97;;;1.02;;
44110;SDS011;29774;52.664;5.074;2022-08-03T02:42:23;6.20;;;1.50;;
44110;SDS011;29774;52.664;5.074;2022-08-03T02:44:50;3.25;;;1.40;;
44110;SDS011;29774;52.664;5.074;2022-08-03T02:47:19;5.35;;;1.35;;
44110;SDS011;29774;52.664;5.074;2022-08-03T02:49:46;2.67;;;1.02;;
44110;SDS011;29774;52.664;5.074;2022-08-03T02:52:14;5.88;;;2.00;;
44110;SDS011;29774;52.664;5.074;2022-08-03T02:54:41;2.72;;;1.20;;
44110;SDS011;29774;52.664;5.074;2022-08-03T02:57:08;6.35;;;1.42;;
44110;SDS011;29774;52.664;5.074;2022-08-03T02:59:36;4.68;;;1.60;;
44110;SDS011;29774;52.664;5.074;2022-08-03T03:02:04;5.20;;;1.58;;
44110;SDS011;29774;52.664;5.074;2022-08-03T03:04:30;3.70;;;0.88;;
44110;SDS011;29774;52.664;5.074;2022-08-03T03:06:57;6.25;;;1.40;;
44110;SDS011;29774;52.664;5.074;2022-08-03T03:09:23;3.15;;;1.27;;
44110;SDS011;29774;52.664;5.074;2022-08-03T03:11:49;4.03;;;1.13;;
44110;SDS011;29774;52.664;5.074;2022-08-03T03:14:16;4.28;;;1.00;;
44110;SDS011;29774;52.664;5.074;2022-08-03T03:16:43;5.60;;;1.55;;
44110;SDS011;29774;52.664;5.074;2022-08-03T03:19:11;4.10;;;1.52;;
44110;SDS011;29774;52.664;5.074;2022-08-03T03:21:38;6.18;;;2.25;;
44110;SDS011;29774;52.664;5.074;2022-08-03T03:24:04;8.38;;;1.45;;
44110;SDS011;29774;52.664;5.074;2022-08-03T03:26:32;4.53;;;1.70;;
44110;SDS011;29774;52.664;5.074;2022-08-03T03:28:58;4.70;;;1.42;;
44110;SDS011;29774;52.664;5.074;2022-08-03T03:31:25;2.83;;;1.17;;
44110;SDS011;29774;52.664;5.074;2022-08-03T03:33:51;5.13;;;1.48;;
44110;SDS011;29774;52.664;5.074;2022-08-03T03:36:17;7.07;;;1.80;;
44110;SDS011;29774;52.664;5.074;2022-08-03T03:38:42;2.55;;;1.27;;
44110;SDS011;29774;52.664;5.074;2022-08-03T03:41:08;6.15;;;1.58;;
44110;SDS011;29774;52.664;5.074;2022-08-03T03:43:34;3.72;;;1.10;;
44110;SDS011;29774;52.664;5.074;2022-08-03T03:46:00;6.05;;;2.10;;
44110;SDS011;29774;52.664;5.074;2022-08-03T03:48:26;9.50;;;3.25;;
44110;SDS011;29774;52.664;5.074;2022-08-03T03:50:52;4.60;;;1.55;;
44110;SDS011;29774;52.664;5.074;2022-08-03T03:53:18;3.13;;;1.15;;
44110;SDS011;29774;52.664;5.074;2022-08-03T03:55:43;3.95;;;1.00;;
44110;SDS011;29774;52.664;5.074;2022-08-03T03:58:09;3.67;;;1.20;;
44110;SDS011;29774;52.664;5.074;2022-08-03T04:00:35;7.63;;;1.70;;
44110;SDS011;29774;52.664;5.074;2022-08-03T04:03:00;7.47;;;1.58;;
44110;SDS011;29774;52.664;5.074;2022-08-03T04:05:26;3.95;;;1.23;;
44110;SDS011;29774;52.664;5.074;2022-08-03T04:08:12;4.20;;;1.35;;
44110;SDS011;29774;52.664;5.074;2022-08-03T04:14:01;3.72;;;1.10;;
44110;SDS011;29774;52.664;5.074;2022-08-03T04:16:31;4.03;;;1.15;;
44110;SDS011;29774;52.664;5.074;2022-08-03T04:19:01;4.03;;;1.10;;
44110;SDS011;29774;52.664;5.074;2022-08-03T04:21:30;3.92;;;1.15;;
44110;SDS011;29774;52.664;5.074;2022-08-03T04:23:59;2.90;;;1.27;;
44110;SDS011;29774;52.664;5.074;2022-08-03T04:26:28;5.28;;;1.65;;
44110;SDS011;29774;52.664;5.074;2022-08-03T04:28:55;6.80;;;1.98;;
44110;SDS011;29774;52.664;5.074;2022-08-03T04:31:23;3.10;;;1.33;;
44110;SDS011;29774;52.664;5.074;2022-08-03T04:33:50;4.15;;;1.15;;
44110;SDS011;29774;52.664;5.074;2022-08-03T04:36:18;4.82;;;1.40;;
44110;SDS011;29774;52.664;5.074;2022-08-03T04:38:54;4.43;;;1.15;;
44110;SDS011;29774;52.664;5.074;2022-08-03T04:41:37;4.75;;;1.38;;
44110;SDS011;29774;52.664;5.074;2022-08-03T04:44:04;2.30;;;1.20;;
44110;SDS011;29774;52.664;5.074;2022-08-03T04:46:33;3.30;;;1.40;;
44110;SDS011;29774;52.664;5.074;2022-08-03T04:49:02;3.53;;;1.23;;
44110;SDS011;29774;52.664;5.074;2022-08-03T04:51:29;2.40;;;1.10;;
44110;SDS011;29774;52.664;5.074;2022-08-03T04:53:55;2.67;;;1.25;;
44110;SDS011;29774;52.664;5.074;2022-08-03T04:56:21;3.80;;;1.20;;
44110;SDS011;29774;52.664;5.074;2022-08-03T04:58:46;4.38;;;1.30;;
44110;SDS011;29774;52.664;5.074;2022-08-03T05:01:12;5.68;;;1.60;;
44110;SDS011;29774;52.664;5.074;2022-08-03T05:03:38;5.15;;;1.50;;
44110;SDS011;29774;52.664;5.074;2022-08-03T05:06:04;5.50;;;1.30;;
44110;SDS011;29774;52.664;5.074;2022-08-03T05:08:30;7.03;;;1.67;;
44110;SDS011;29774;52.664;5.074;2022-08-03T05:10:55;4.75;;;1.38;;
44110;SDS011;29774;52.664;5.074;2022-08-03T05:13:22;4.10;;;1.58;;
44110;SDS011;29774;52.664;5.074;2022-08-03T05:15:47;3.83;;;1.40;;
44110;SDS011;29774;52.664;5.074;2022-08-03T05:18:13;3.92;;;2.20;;
44110;SDS011;29774;52.664;5.074;2022-08-03T05:20:38;4.40;;;1.38;;
44110;SDS011;29774;52.664;5.074;2022-08-03T05:23:04;6.10;;;1.73;;
44110;SDS011;29774;52.664;5.074;2022-08-03T05:25:30;5.30;;;1.33;;
44110;SDS011;29774;52.664;5.074;2022-08-03T05:27:55;5.70;;;1.38;;
44110;SDS011;29774;52.664;5.074;2022-08-03T05:30:21;5.97;;;1.65;;
44110;SDS011;29774;52.664;5.074;2022-08-03T05:32:46;4.50;;;1.70;;
44110;SDS011;29774;52.664;5.074;2022-08-03T05:35:12;3.92;;;1.48;;
44110;SDS011;29774;52.664;5.074;2022-08-03T05:37:38;4.30;;;1.25;;
44110;SDS011;29774;52.664;5.074;2022-08-03T05:40:04;9.02;;;2.38;;
44110;SDS011;29774;52.664;5.074;2022-08-03T05:42:30;7.40;;;1.40;;
44110;SDS011;29774;52.664;5.074;2022-08-03T05:44:55;4.25;;;1.10;;
44110;SDS011;29774;52.664;5.074;2022-08-03T05:47:21;7.30;;;2.05;;
44110;SDS011;29774;52.664;5.074;2022-08-03T05:49:47;5.47;;;1.55;;
44110;SDS011;29774;52.664;5.074;2022-08-03T05:52:12;6.53;;;1.77;;
44110;SDS011;29774;52.664;5.074;2022-08-03T05:54:38;8.52;;;2.38;;
44110;SDS011;29774;52.664;5.074;2022-08-03T05:57:03;5.22;;;1.20;;
44110;SDS011;29774;52.664;5.074;2022-08-03T05:59:29;3.47;;;1.30;;
44110;SDS011;29774;52.664;5.074;2022-08-03T06:01:54;5.38;;;1.60;;
44110;SDS011;29774;52.664;5.074;2022-08-03T06:04:20;5.40;;;1.80;;
44110;SDS011;29774;52.664;5.074;2022-08-03T06:06:45;4.45;;;1.50;;
44110;SDS011;29774;52.664;5.074;2022-08-03T06:09:12;6.20;;;1.85;;
44110;SDS011;29774;52.664;5.074;2022-08-03T06:11:37;5.30;;;1.92;;
44110;SDS011;29774;52.664;5.074;2022-08-03T06:14:04;4.68;;;1.40;;
44110;SDS011;29774;52.664;5.074;2022-08-03T06:16:30;4.68;;;1.58;;
44110;SDS011;29774;52.664;5.074;2022-08-03T06:18:55;7.45;;;1.92;;
44110;SDS011;29774;52.664;5.074;2022-08-03T06:21:21;9.45;;;1.73;;
44110;SDS011;29774;52.664;5.074;2022-08-03T06:23:46;3.92;;;1.35;;
44110;SDS011;29774;52.664;5.074;2022-08-03T06:26:12;8.38;;;2.67;;
44110;SDS011;29774;52.664;5.074;2022-08-03T06:28:38;7.32;;;2.17;;
44110;SDS011;29774;52.664;5.074;2022-08-03T06:31:03;3.95;;;1.55;;
44110;SDS011;29774;52.664;5.074;2022-08-03T06:33:30;4.00;;;1.42;;
44110;SDS011;29774;52.664;5.074;2022-08-03T06:35:55;5.40;;;1.58;;
44110;SDS011;29774;52.664;5.074;2022-08-03T06:38:21;3.30;;;1.42;;
44110;SDS011;29774;52.664;5.074;2022-08-03T06:40:47;5.22;;;1.90;;
44110;SDS011;29774;52.664;5.074;2022-08-03T06:43:12;5.00;;;1.60;;
44110;SDS011;29774;52.664;5.074;2022-08-03T06:45:39;5.43;;;1.98;;
44110;SDS011;29774;52.664;5.074;2022-08-03T06:48:06;2.38;;;1.42;;
44110;SDS011;29774;52.664;5.074;2022-08-03T06:50:33;4.15;;;1.90;;
44110;SDS011;29774;52.664;5.074;2022-08-03T06:53:00;4.45;;;2.00;;
44110;SDS011;29774;52.664;5.074;2022-08-03T06:55:26;6.38;;;2.60;;
44110;SDS011;29774;52.664;5.074;2022-08-03T06:57:52;6.40;;;1.60;;
44110;SDS011;29774;52.664;5.074;2022-08-03T07:00:18;2.22;;;1.35;;
44110;SDS011;29774;52.664;5.074;2022-08-03T07:02:44;3.58;;;1.38;;
44110;SDS011;29774;52.664;5.074;2022-08-03T07:05:10;2.92;;;1.65;;
44110;SDS011;29774;52.664;5.074;2022-08-03T07:07:36;5.30;;;1.80;;
44110;SDS011;29774;52.664;5.074;2022-08-03T07:10:02;4.00;;;1.58;;
44110;SDS011;29774;52.664;5.074;2022-08-03T07:12:29;2.88;;;1.40;;
44110;SDS011;29774;52.664;5.074;2022-08-03T07:14:55;2.47;;;1.48;;
44110;SDS011;29774;52.664;5.074;2022-08-03T07:17:22;4.22;;;1.40;;
44110;SDS011;29774;52.664;5.074;2022-08-03T07:19:48;3.53;;;2.10;;
44110;SDS011;29774;52.664;5.074;2022-08-03T07:22:13;6.57;;;2.22;;
44110;SDS011;29774;52.664;5.074;2022-08-03T07:24:39;6.05;;;2.00;;
44110;SDS011;29774;52.664;5.074;2022-08-03T07:27:05;7.68;;;2.05;;
44110;SDS011;29774;52.664;5.074;2022-08-03T07:29:33;3.35;;;1.25;;
44110;SDS011;29774;52.664;5.074;2022-08-03T07:31:59;5.13;;;1.48;;
44110;SDS011;29774;52.664;5.074;2022-08-03T07:34:25;6.13;;;1.60;;
44110;SDS011;29774;52.664;5.074;2022-08-03T07:36:50;3.90;;;1.70;;
44110;SDS011;29774;52.664;5.074;2022-08-03T07:39:16;7.65;;;1.88;;
44110;SDS011;29774;52.664;5.074;2022-08-03T07:41:41;6.13;;;1.75;;
44110;SDS011;29774;52.664;5.074;2022-08-03T07:44:07;6.20;;;1.90;;
44110;SDS011;29774;52.664;5.074;2022-08-03T07:46:33;4.25;;;1.67;;
44110;SDS011;29774;52.664;5.074;2022-08-03T07:48:58;4.03;;;1.38;;
44110;SDS011;29774;52.664;5.074;2022-08-03T07:51:24;4.18;;;1.50;;
44110;SDS011;29774;52.664;5.074;2022-08-03T07:53:49;3.50;;;1.63;;
44110;SDS011;29774;52.664;5.074;2022-08-03T07:56:15;3.35;;;1.27;;
44110;SDS011;29774;52.664;5.074;2022-08-03T07:58:41;2.50;;;1.05;;
44110;SDS011;29774;52.664;5.074;2022-08-03T08:01:06;3.72;;;1.90;;
44110;SDS011;29774;52.664;5.074;2022-08-03T08:03:32;3.38;;;1.10;;
44110;SDS011;29774;52.664;5.074;2022-08-03T08:05:57;3.78;;;1.70;;
44110;SDS011;29774;52.664;5.074;2022-08-03T08:08:23;4.03;;;1.30;;
44110;SDS011;29774;52.664;5.074;2022-08-03T08:10:49;8.82;;;1.75;;
44110;SDS011;29774;52.664;5.074;2022-08-03T08:13:14;5.38;;;1.38;;
44110;SDS011;29774;52.664;5.074;2022-08-03T08:15:40;3.38;;;1.30;;
44110;SDS011;29774;52.664;5.074;2022-08-03T08:18:05;3.13;;;1.30;;
44110;SDS011;29774;52.664;5.074;2022-08-03T08:20:32;3.38;;;1.45;;
44110;SDS011;29774;52.664;5.074;2022-08-03T08:23:02;5.20;;;1.10;;
44110;SDS011;29774;52.664;5.074;2022-08-03T08:25:29;2.15;;;1.27;;
44110;SDS011;29774;52.664;5.074;2022-08-03T08:27:56;2.70;;;1.33;;
44110;SDS011;29774;52.664;5.074;2022-08-03T08:30:22;2.47;;;1.40;;
44110;SDS011;29774;52.664;5.074;2022-08-03T08:32:49;3.08;;;1.20;;
44110;SDS011;29774;52.664;5.074;2022-08-03T08:35:15;6.75;;;2.17;;
44110;SDS011;29774;52.664;5.074;2022-08-03T08:37:41;4.22;;;1.48;;
44110;SDS011;29774;52.664;5.074;2022-08-03T08:40:08;5.13;;;1.67;;
44110;SDS011;29774;52.664;5.074;2022-08-03T08:42:36;12.27;;;2.28;;
44110;SDS011;29774;52.664;5.074;2022-08-03T08:45:03;8.50;;;2.40;;
44110;SDS011;29774;52.664;5.074;2022-08-03T08:47:33;4.78;;;1.33;;
44110;SDS011;29774;52.664;5.074;2022-08-03T08:50:04;3.75;;;1.88;;
44110;SDS011;29774;52.664;5.074;2022-08-03T08:52:32;4.15;;;1.48;;
44110;SDS011;29774;52.664;5.074;2022-08-03T08:55:00;6.78;;;1.60;;
44110;SDS011;29774;52.664;5.074;2022-08-03T08:57:29;5.90;;;1.48;;
44110;SDS011;29774;52.664;5.074;2022-08-03T08:59:57;10.93;;;2.60;;
44110;SDS011;29774;52.664;5.074;2022-08-03T09:02:25;5.70;;;2.10;;
44110;SDS011;29774;52.664;5.074;2022-08-03T09:04:54;4.55;;;1.67;;
44110;SDS011;29774;52.664;5.074;2022-08-03T09:07:19;5.35;;;1.60;;
44110;SDS011;29774;52.664;5.074;2022-08-03T09:09:45;2.67;;;1.13;;
44110;SDS011;29774;52.664;5.074;2022-08-03T09:12:12;3.33;;;1.30;;
44110;SDS011;29774;52.664;5.074;2022-08-03T09:14:37;4.32;;;1.45;;
44110;SDS011;29774;52.664;5.074;2022-08-03T09:17:03;3.50;;;1.70;;
44110;SDS011;29774;52.664;5.074;2022-08-03T09:19:30;5.82;;;1.80;;
44110;SDS011;29774;52.664;5.074;2022-08-03T09:24:34;7.82;;;1.85;;
44110;SDS011;29774;52.664;5.074;2022-08-03T09:27:03;4.53;;;2.15;;
44110;SDS011;29774;52.664;5.074;2022-08-03T09:29:31;6.45;;;2.15;;
44110;SDS011;29774;52.664;5.074;2022-08-03T09:32:03;5.00;;;2.03;;
44110;SDS011;29774;52.664;5.074;2022-08-03T09:34:29;8.93;;;2.20;;
44110;SDS011;29774;52.664;5.074;2022-08-03T09:36:55;10.02;;;3.20;;
44110;SDS011;29774;52.664;5.074;2022-08-03T09:39:24;13.68;;;2.95;;
44110;SDS011;29774;52.664;5.074;2022-08-03T09:42:04;7.72;;;2.60;;
44110;SDS011;29774;52.664;5.074;2022-08-03T09:44:34;11.75;;;2.25;;
44110;SDS011;29774;52.664;5.074;2022-08-03T09:47:01;8.23;;;2.20;;
44110;SDS011;29774;52.664;5.074;2022-08-03T09:49:26;6.93;;;2.72;;
44110;SDS011;29774;52.664;5.074;2022-08-03T09:51:52;4.32;;;1.92;;
44110;SDS011;29774;52.664;5.074;2022-08-03T09:54:28;8.23;;;2.30;;
44110;SDS011;29774;52.664;5.074;2022-08-03T09:56:55;5.97;;;2.40;;
44110;SDS011;29774;52.664;5.074;2022-08-03T09:59:25;7.75;;;2.47;;
44110;SDS011;29774;52.664;5.074;2022-08-03T10:01:52;7.03;;;2.20;;
44110;SDS011;29774;52.664;5.074;2022-08-03T10:04:18;7.80;;;2.58;;
44110;SDS011;29774;52.664;5.074;2022-08-03T10:06:45;6.05;;;2.95;;
44110;SDS011;29774;52.664;5.074;2022-08-03T10:09:25;5.07;;;1.80;;
44110;SDS011;29774;52.664;5.074;2022-08-03T10:11:51;8.13;;;1.95;;
44110;SDS011;29774;52.664;5.074;2022-08-03T10:14:17;11.52;;;2.97;;
44110;SDS011;29774;52.664;5.074;2022-08-03T10:16:43;8.98;;;2.58;;
44110;SDS011;29774;52.664;5.074;2022-08-03T10:19:09;4.82;;;2.20;;
44110;SDS011;29774;52.664;5.074;2022-08-03T10:21:36;7.53;;;2.20;;
44110;SDS011;29774;52.664;5.074;2022-08-03T10:24:04;6.85;;;2.30;;
44110;SDS011;29774;52.664;5.074;2022-08-03T10:26:32;6.63;;;2.50;;
44110;SDS011;29774;52.664;5.074;2022-08-03T10:29:01;4.53;;;2.00;;
44110;SDS011;29774;52.664;5.074;2022-08-03T10:31:37;6.10;;;1.90;;
44110;SDS011;29774;52.664;5.074;2022-08-03T10:34:05;5.85;;;1.90;;
44110;SDS011;29774;52.664;5.074;2022-08-03T10:36:35;8.10;;;2.20;;
44110;SDS011;29774;52.664;5.074;2022-08-03T10:39:03;10.57;;;2.35;;
44110;SDS011;29774;52.664;5.074;2022-08-03T10:41:34;5.00;;;1.70;;
44110;SDS011;29774;52.664;5.074;2022-08-03T10:44:10;9.02;;;2.50;;
44110;SDS011;29774;52.664;5.074;2022-08-03T10:46:41;7.97;;;2.33;;
44110;SDS011;29774;52.664;5.074;2022-08-03T10:49:10;4.03;;;2.05;;
44110;SDS011;29774;52.664;5.074;2022-08-03T10:51:38;10.18;;;2.55;;
44110;SDS011;29774;52.664;5.074;2022-08-03T10:54:05;7.43;;;2.17;;
44110;SDS011;29774;52.664;5.074;2022-08-03T10:59:15;3.60;;;1.77;;
44110;SDS011;29774;52.664;5.074;2022-08-03T11:01:51;5.57;;;2.20;;
44110;SDS011;29774;52.664;5.074;2022-08-03T11:04:21;4.03;;;1.80;;
44110;SDS011;29774;52.664;5.074;2022-08-03T11:09:44;9.07;;;2.60;;
44110;SDS011;29774;52.664;5.074;2022-08-03T11:14:50;7.05;;;2.13;;
44110;SDS011;29774;52.664;5.074;2022-08-03T11:17:18;6.15;;;2.05;;
44110;SDS011;29774;52.664;5.074;2022-08-03T11:19:45;6.63;;;2.85;;
44110;SDS011;29774;52.664;5.074;2022-08-03T11:22:12;7.55;;;2.22;;
44110;SDS011;29774;52.664;5.074;2022-08-03T11:35:11;6.38;;;2.35;;
44110;SDS011;29774;52.664;5.074;2022-08-03T11:46:04;3.42;;;1.45;;
44110;SDS011;29774;52.664;5.074;2022-08-03T11:48:42;5.03;;;1.60;;
44110;SDS011;29774;52.664;5.074;2022-08-03T11:51:25;4.25;;;1.63;;
44110;SDS011;29774;52.664;5.074;2022-08-03T11:53:56;3.97;;;1.50;;
44110;SDS011;29774;52.664;5.074;2022-08-03T11:56:23;4.85;;;1.77;;
44110;SDS011;29774;52.664;5.074;2022-08-03T11:58:51;5.68;;;2.10;;
44110;SDS011;29774;52.664;5.074;2022-08-03T12:01:18;5.60;;;1.70;;
44110;SDS011;29774;52.664;5.074;2022-08-03T12:03:44;4.25;;;1.65;;
44110;SDS011;29774;52.664;5.074;2022-08-03T12:06:11;4.45;;;2.28;;
44110;SDS011;29774;52.664;5.074;2022-08-03T12:08:39;6.65;;;1.85;;
44110;SDS011;29774;52.664;5.074;2022-08-03T12:11:06;6.47;;;1.92;;
44110;SDS011;29774;52.664;5.074;2022-08-03T12:13:44;3.55;;;1.73;;
44110;SDS011;29774;52.664;5.074;2022-08-03T12:16:21;3.35;;;1.60;;
44110;SDS011;29774;52.664;5.074;2022-08-03T12:18:55;5.55;;;2.10;;
44110;SDS011;29774;52.664;5.074;2022-08-03T12:21:20;7.82;;;2.05;;
44110;SDS011;29774;52.664;5.074;2022-08-03T12:23:48;7.93;;;1.80;;
44110;SDS011;29774;52.664;5.074;2022-08-03T12:26:14;3.13;;;1.90;;
44110;SDS011;29774;52.664;5.074;2022-08-03T12:28:47;5.63;;;1.77;;
44110;SDS011;29774;52.664;5.074;2022-08-03T12:31:13;4.97;;;1.85;;
44110;SDS011;29774;52.664;5.074;2022-08-03T12:33:58;5.78;;;1.52;;
44110;SDS011;29774;52.664;5.074;2022-08-03T12:36:26;3.65;;;1.67;;
44110;SDS011;29774;52.664;5.074;2022-08-03T12:38:54;3.47;;;1.30;;
44110;SDS011;29774;52.664;5.074;2022-08-03T12:41:26;9.27;;;2.20;;
44110;SDS011;29774;52.664;5.074;2022-08-03T12:43:53;4.95;;;1.58;;
44110;SDS011;29774;52.664;5.074;2022-08-03T12:46:19;6.05;;;2.05;;
44110;SDS011;29774;52.664;5.074;2022-08-03T12:54:15;4.78;;;1.80;;
44110;SDS011;29774;52.664;5.074;2022-08-03T12:56:58;6.35;;;2.00;;
44110;SDS011;29774;52.664;5.074;2022-08-03T13:01:58;9.65;;;1.83;;
44110;SDS011;29774;52.664;5.074;2022-08-03T13:04:24;3.45;;;1.80;;
44110;SDS011;29774;52.664;5.074;2022-08-03T13:07:03;6.63;;;1.83;;
44110;SDS011;29774;52.664;5.074;2022-08-03T13:09:44;5.82;;;2.35;;
44110;SDS011;29774;52.664;5.074;2022-08-03T13:12:18;9.27;;;2.25;;
44110;SDS011;29774;52.664;5.074;2022-08-03T13:14:46;3.75;;;1.52;;
44110;SDS011;29774;52.664;5.074;2022-08-03T13:17:13;3.28;;;1.48;;
44110;SDS011;29774;52.664;5.074;2022-08-03T13:19:42;2.72;;;1.48;;
44110;SDS011;29774;52.664;5.074;2022-08-03T13:22:12;3.70;;;1.85;;
44110;SDS011;29774;52.664;5.074;2022-08-03T13:24:39;4.63;;;1.70;;
44110;SDS011;29774;52.664;5.074;2022-08-03T13:27:06;6.20;;;1.88;;
44110;SDS011;29774;52.664;5.074;2022-08-03T13:29:32;4.07;;;1.80;;
44110;SDS011;29774;52.664;5.074;2022-08-03T13:31:58;4.72;;;1.75;;
44110;SDS011;29774;52.664;5.074;2022-08-03T13:34:24;5.55;;;1.90;;
44110;SDS011;29774;52.664;5.074;2022-08-03T13:36:50;5.60;;;1.90;;
44110;SDS011;29774;52.664;5.074;2022-08-03T13:39:16;7.32;;;2.03;;
44110;SDS011;29774;52.664;5.074;2022-08-03T13:41:43;3.83;;;2.00;;
44110;SDS011;29774;52.664;5.074;2022-08-03T13:44:09;3.83;;;1.80;;
44110;SDS011;29774;52.664;5.074;2022-08-03T13:46:35;5.93;;;2.33;;
44110;SDS011;29774;52.664;5.074;2022-08-03T13:49:01;6.28;;;1.67;;
44110;SDS011;29774;52.664;5.074;2022-08-03T13:51:27;4.90;;;2.05;;
44110;SDS011;29774;52.664;5.074;2022-08-03T13:53:52;8.45;;;2.35;;
44110;SDS011;29774;52.664;5.074;2022-08-03T13:56:18;6.40;;;2.13;;
44110;SDS011;29774;52.664;5.074;2022-08-03T13:58:43;5.55;;;2.50;;
44110;SDS011;29774;52.664;5.074;2022-08-03T14:01:09;4.60;;;2.22;;
44110;SDS011;29774;52.664;5.074;2022-08-03T14:03:35;7.10;;;1.85;;
44110;SDS011;29774;52.664;5.074;2022-08-03T14:06:01;4.88;;;2.00;;
44110;SDS011;29774;52.664;5.074;2022-08-03T14:08:26;7.93;;;2.03;;
44110;SDS011;29774;52.664;5.074;2022-08-03T14:10:52;4.70;;;1.92;;
44110;SDS011;29774;52.664;5.074;2022-08-03T14:13:17;5.30;;;1.98;;
44110;SDS011;29774;52.664;5.074;2022-08-03T14:15:43;5.78;;;2.30;;
44110;SDS011;29774;52.664;5.074;2022-08-03T14:18:09;8.52;;;2.58;;
44110;SDS011;29774;52.664;5.074;2022-08-03T14:20:35;4.63;;;1.90;;
44110;SDS011;29774;52.664;5.074;2022-08-03T14:23:01;6.15;;;2.00;;
44110;SDS011;29774;52.664;5.074;2022-08-03T14:25:26;37.40;;;6.20;;
44110;SDS011;29774;52.664;5.074;2022-08-03T14:27:52;34.45;;;5.60;;
44110;SDS011;29774;52.664;5.074;2022-08-03T14:30:17;22.92;;;5.60;;
44110;SDS011;29774;52.664;5.074;2022-08-03T14:32:43;26.08;;;4.57;;
44110;SDS011;29774;52.664;5.074;2022-08-03T14:35:09;25.88;;;3.88;;
44110;SDS011;29774;52.664;5.074;2022-08-03T14:37:34;25.67;;;4.93;;
44110;SDS011;29774;52.664;5.074;2022-08-03T14:40:00;19.10;;;3.13;;
44110;SDS011;29774;52.664;5.074;2022-08-03T14:42:26;15.15;;;3.30;;
44110;SDS011;29774;52.664;5.074;2022-08-03T14:44:51;12.68;;;2.60;;
44110;SDS011;29774;52.664;5.074;2022-08-03T14:47:17;13.88;;;2.70;;
44110;SDS011;29774;52.664;5.074;2022-08-03T14:49:43;10.43;;;2.67;;
44110;SDS011;29774;52.664;5.074;2022-08-03T14:52:08;8.35;;;2.25;;
44110;SDS011;29774;52.664;5.074;2022-08-03T14:54:34;6.53;;;2.03;;
44110;SDS011;29774;52.664;5.074;2022-08-03T14:57:00;6.28;;;2.00;;
44110;SDS011;29774;52.664;5.074;2022-08-03T14:59:25;8.82;;;2.45;;
44110;SDS011;29774;52.664;5.074;2022-08-03T15:01:51;6.15;;;2.53;;
44110;SDS011;29774;52.664;5.074;2022-08-03T15:04:18;5.78;;;2.15;;
44110;SDS011;29774;52.664;5.074;2022-08-03T15:06:43;11.80;;;2.15;;
44110;SDS011;29774;52.664;5.074;2022-08-03T15:09:09;7.18;;;2.13;;
44110;SDS011;29774;52.664;5.074;2022-08-03T15:11:34;10.43;;;2.33;;
44110;SDS011;29774;52.664;5.074;2022-08-03T15:14:00;8.30;;;2.13;;
44110;SDS011;29774;52.664;5.074;2022-08-03T15:16:26;8.57;;;2.50;;
44110;SDS011;29774;52.664;5.074;2022-08-03T15:18:52;5.82;;;1.65;;
44110;SDS011;29774;52.664;5.074;2022-08-03T15:21:17;6.13;;;2.50;;
44110;SDS011;29774;52.664;5.074;2022-08-03T15:23:43;3.95;;;1.63;;
44110;SDS011;29774;52.664;5.074;2022-08-03T15:26:08;6.85;;;1.80;;
44110;SDS011;29774;52.664;5.074;2022-08-03T15:28:34;5.75;;;2.00;;
44110;SDS011;29774;52.664;5.074;2022-08-03T15:30:59;6.07;;;2.00;;
44110;SDS011;29774;52.664;5.074;2022-08-03T15:33:25;3.60;;;1.65;;
44110;SDS011;29774;52.664;5.074;2022-08-03T15:35:51;6.93;;;1.88;;
44110;SDS011;29774;52.664;5.074;2022-08-03T15:38:17;4.60;;;1.40;;
44110;SDS011;29774;52.664;5.074;2022-08-03T15:40:43;4.68;;;1.52;;
44110;SDS011;29774;52.664;5.074;2022-08-03T15:43:09;2.92;;;1.58;;
44110;SDS011;29774;52.664;5.074;2022-08-03T15:45:35;4.53;;;2.03;;